Ustick, Illinois
Current Conditions -  °F | °C
As of 3:15 AM on Sunday 26 Oct 2014 (Local Time) from KSQI Reporting Station
Clear Clear  
Wind Chill:   Ceiling: Unl
Heat Index:   Visibility: 10mi
Dew Point: -1°   Wind: 3mph
Humidity: 65%   Direction: 310°NW
Pressure: 30.03"   Gusts: NA
Location:  41.8285°N, 89.9656°W
Report Text: KSQI 260815Z AUTO 31003KT 10SM CLR 05/M01 A3003 RMK AO1
Loading
Personal Weather Stations






























Interactive Weather Map
Tropical Storm Tracking
New forecast layout! Learn more

10-Day Weather Forecast

Advertisements
Track Severe Weather on mobile